Dades meteomassalio
Diari Summary for Gener 20, 2018 Units:  English    Metric   Both
« Previous Day
Next Day »
Diari Semanal Mensual Anual Personalitzat
  Maxima: Minima: Mijana:
Temperatura: TemperatureC °F 3.3 °F 11.2 °F
Rosada: DewpointC °F -1.8 °F 3.2 °F
Humitat: Humidity % 35 % 59 %
Velocitat del vent: WindSpeedKMH mph 0.0 mph 25.3 mph
Racha vent: WindSpeedGustKMH mph - -
Vent:- - WNW
Pressio: PressurehPa in 1022.2 in -
Pluja: 0.0 in    
Historical Graphs
 
 
Tabular Data for Gener 20, 2018
Time Temperature Dew Point Pressure Wind Wind Speed Wind Gust Humidity Rainfall Rate (Hourly) solar Conditions
TemperatureC °F DewpointC °F PressurehPa in Calm     Humidity % HourlyPrecipMM in SolarRadiationWatts/m^2 W/m2 Conditions
00:02 8.9 °F 3.9 °F 1026.3 in NW 25.9 mph 25.9 mph 71 % 0.0 in 0.0 W/m2 CLR
00:07 8.3 °F 3.6 °F 1026.3 in NW 18.5 mph 18.5 mph 72 % 0.0 in 0.0 W/m2 CLR
00:12 8.3 °F 3.8 °F 1026.3 in NW 18.5 mph 18.5 mph 73 % 0.0 in 0.0 W/m2 CLR
00:17 8.3 °F 3.8 °F 1026.3 in NW 24.1 mph 24.1 mph 73 % 0.0 in 0.0 W/m2 CLR
00:22 8.3 °F 3.8 °F 1026.3 in NW 27.8 mph 27.8 mph 73 % 0.0 in 0.0 W/m2 CLR
00:27 8.3 °F 3.8 °F 1026.3 in WNW 25.9 mph 25.9 mph 73 % 0.0 in 0.0 W/m2 CLR
00:32 8.3 °F 3.8 °F 1026.3 in NW 20.4 mph 20.4 mph 73 % 0.0 in 0.0 W/m2 CLR
00:37 8.3 °F 3.8 °F 1026.3 in WNW 22.2 mph 22.2 mph 73 % 0.0 in 0.0 W/m2 CLR
00:42 8.3 °F 3.8 °F 1026.3 in NNW 25.9 mph 25.9 mph 73 % 0.0 in 0.0 W/m2 CLR
00:47 8.3 °F 3.8 °F 1026.3 in WNW 22.5 mph 22.5 mph 73 % 0.0 in 0.0 W/m2 CLR
00:52 8.3 °F 3.8 °F 1026.3 in WNW 24.1 mph 24.1 mph 73 % 0.0 in 0.0 W/m2 CLR
00:57 8.3 °F 3.9 °F 1026.3 in WSW 11.1 mph 11.1 mph 74 % 0.0 in 0.0 W/m2 CLR
01:02 8.3 °F 3.9 °F 1026.3 in NW 20.4 mph 20.4 mph 74 % 0.0 in 0.0 W/m2 CLR
01:07 7.8 °F 3.4 °F 1026.3 in WNW 18.5 mph 18.5 mph 74 % 0.0 in 0.0 W/m2 CLR
01:12 7.8 °F 3.2 °F 1026.3 in North 25.9 mph 25.9 mph 73 % 0.0 in 0.0 W/m2 CLR
01:17 7.8 °F 3.2 °F 1026.3 in NNW 16.7 mph 16.7 mph 73 % 0.0 in 0.0 W/m2 CLR
01:22 8.3 °F 3.8 °F 1026.0 in NNW 35.2 mph 35.2 mph 73 % 0.0 in 0.0 W/m2 CLR
01:27 8.3 °F 3.6 °F 1026.0 in North 22.5 mph 22.5 mph 72 % 0.0 in 0.0 W/m2 CLR
01:32 8.3 °F 3.6 °F 1026.0 in NW 24.1 mph 24.1 mph 72 % 0.0 in 0.0 W/m2 CLR
01:37 8.3 °F 3.6 °F 1026.0 in NW 27.8 mph 27.8 mph 72 % 0.0 in 0.0 W/m2 CLR
01:42 8.3 °F 3.6 °F 1026.0 in WNW 31.5 mph 31.5 mph 72 % 0.0 in 0.0 W/m2 CLR
01:47 8.3 °F 3.6 °F 1026.0 in NW 24.1 mph 24.1 mph 72 % 0.0 in 0.0 W/m2 CLR
01:52 8.9 °F 4.1 °F 1026.0 in NNW 38.9 mph 38.9 mph 72 % 0.0 in 0.0 W/m2 CLR
01:57 8.9 °F 4.1 °F 1026.0 in NW 25.9 mph 25.9 mph 72 % 0.0 in 0.0 W/m2 CLR
02:02 8.3 °F 3.4 °F 1026.3 in WNW 20.4 mph 20.4 mph 71 % 0.0 in 0.0 W/m2 CLR
02:07 8.3 °F 3.4 °F 1026.0 in WNW 18.5 mph 18.5 mph 71 % 0.0 in 0.0 W/m2 CLR
02:12 8.3 °F 3.4 °F 1026.0 in NW 16.7 mph 16.7 mph 71 % 0.0 in 0.0 W/m2 CLR
02:17 7.8 °F 3.1 °F 1026.3 in NW 25.7 mph 25.7 mph 72 % 0.0 in 0.0 W/m2 CLR
02:22 8.3 °F 3.6 °F 1026.3 in WNW 22.2 mph 22.2 mph 72 % 0.0 in 0.0 W/m2 CLR
02:27 8.3 °F 3.6 °F 1026.0 in NW 16.7 mph 16.7 mph 72 % 0.0 in 0.0 W/m2 CLR
02:32 8.3 °F 3.8 °F 1026.0 in NW 24.1 mph 24.1 mph 73 % 0.0 in 0.0 W/m2 CLR
02:37 8.3 °F 3.8 °F 1026.0 in NNW 25.9 mph 25.9 mph 73 % 0.0 in 0.0 W/m2 CLR
02:42 7.8 °F 3.2 °F 1026.0 in NW 25.9 mph 25.9 mph 73 % 0.0 in 0.0 W/m2 CLR
02:47 7.8 °F 3.4 °F 1026.0 in NW 22.5 mph 22.5 mph 74 % 0.0 in 0.0 W/m2 CLR
02:52 7.8 °F 3.4 °F 1025.6 in NW 22.2 mph 22.2 mph 74 % 0.0 in 0.0 W/m2 CLR
02:57 7.8 °F 3.4 °F 1026.0 in NW 25.9 mph 25.9 mph 74 % 0.0 in 0.0 W/m2 CLR
03:02 7.8 °F 3.4 °F 1026.0 in NNW 33.3 mph 33.3 mph 74 % 0.0 in 0.0 W/m2 CLR
03:07 7.8 °F 3.4 °F 1025.6 in NNW 27.8 mph 27.8 mph 74 % 0.0 in 0.0 W/m2 CLR
03:12 7.8 °F 3.4 °F 1026.0 in NW 27.8 mph 27.8 mph 74 % 0.0 in 0.0 W/m2 CLR
03:17 7.8 °F 3.4 °F 1026.0 in NW 32.2 mph 32.2 mph 74 % 0.0 in 0.0 W/m2 CLR
03:22 7.8 °F 3.4 °F 1026.0 in NW 35.2 mph 35.2 mph 74 % 0.0 in 0.0 W/m2 CLR
03:27 7.8 °F 3.2 °F 1026.0 in NW 31.5 mph 31.5 mph 73 % 0.0 in 0.0 W/m2 CLR
03:32 7.8 °F 3.2 °F 1026.0 in NW 29.0 mph 29.0 mph 73 % 0.0 in 0.0 W/m2 CLR
03:37 7.8 °F 3.2 °F 1026.3 in NW 20.4 mph 20.4 mph 73 % 0.0 in 0.0 W/m2 CLR
03:42 7.8 °F 3.2 °F 1026.3 in NW 20.9 mph 20.9 mph 73 % 0.0 in 0.0 W/m2 CLR
03:47 7.8 °F 3.2 °F 1026.0 in NW 31.5 mph 31.5 mph 73 % 0.0 in 0.0 W/m2 CLR
03:52 7.8 °F 3.2 °F 1026.0 in NW 18.5 mph 18.5 mph 73 % 0.0 in 0.0 W/m2 CLR
03:57 7.8 °F 3.2 °F 1026.0 in NW 22.2 mph 22.2 mph 73 % 0.0 in 0.0 W/m2 CLR
04:02 7.8 °F 3.2 °F 1026.0 in NW 24.1 mph 24.1 mph 73 % 0.0 in 0.0 W/m2 CLR
04:07 7.8 °F 3.2 °F 1026.0 in NW 25.9 mph 25.9 mph 73 % 0.0 in 0.0 W/m2 CLR
04:12 7.8 °F 3.2 °F 1026.0 in NNW 20.4 mph 20.4 mph 73 % 0.0 in 0.0 W/m2 CLR
04:17 7.8 °F 3.2 °F 1026.0 in NNW 18.5 mph 18.5 mph 73 % 0.0 in 0.0 W/m2 CLR
04:22 7.8 °F 3.2 °F 1026.0 in WNW 18.5 mph 18.5 mph 73 % 0.0 in 0.0 W/m2 CLR
04:27 7.8 °F 3.2 °F 1026.0 in WNW 19.3 mph 19.3 mph 73 % 0.0 in 0.0 W/m2 CLR
04:32 7.8 °F 3.1 °F 1026.0 in WNW 24.1 mph 24.1 mph 72 % 0.0 in 0.0 W/m2 CLR
04:37 7.8 °F 3.1 °F 1026.0 in WNW 22.2 mph 22.2 mph 72 % 0.0 in 0.0 W/m2 CLR
04:42 7.8 °F 3.1 °F 1026.0 in WNW 18.5 mph 18.5 mph 72 % 0.0 in 0.0 W/m2 CLR
04:47 7.8 °F 3.1 °F 1025.6 in WNW 16.7 mph 16.7 mph 72 % 0.0 in 0.0 W/m2 CLR
04:52 7.2 °F 2.7 °F 1025.6 in WNW 25.9 mph 25.9 mph 73 % 0.0 in 0.0 W/m2 CLR
04:57 7.2 °F 2.7 °F 1025.6 in WNW 27.8 mph 27.8 mph 73 % 0.0 in 0.0 W/m2 CLR
05:02 7.2 °F 2.7 °F 1025.6 in WNW 30.6 mph 30.6 mph 73 % 0.0 in 0.0 W/m2 CLR
05:07 7.2 °F 2.5 °F 1025.6 in NW 17.7 mph 17.7 mph 72 % 0.0 in 0.0 W/m2 CLR
05:12 7.2 °F 2.7 °F 1025.6 in NW 25.9 mph 25.9 mph 73 % 0.0 in 0.0 W/m2 CLR
05:17 7.2 °F 2.7 °F 1025.6 in NW 22.5 mph 22.5 mph 73 % 0.0 in 0.0 W/m2 CLR
05:22 7.8 °F 3.2 °F 1025.6 in NW 25.9 mph 25.9 mph 73 % 0.0 in 0.0 W/m2 CLR
05:27 7.8 °F 3.2 °F 1026.0 in NW 31.5 mph 31.5 mph 73 % 0.0 in 0.0 W/m2 CLR
05:32 7.8 °F 3.1 °F 1026.0 in NW 27.8 mph 27.8 mph 72 % 0.0 in 0.0 W/m2 CLR
05:37 7.8 °F 3.1 °F 1026.0 in WNW 22.2 mph 22.2 mph 72 % 0.0 in 0.0 W/m2 CLR
05:42 7.8 °F 3.1 °F 1026.0 in NW 16.7 mph 16.7 mph 72 % 0.0 in 0.0 W/m2 CLR
05:47 7.8 °F 3.1 °F 1026.0 in NW 25.9 mph 25.9 mph 72 % 0.0 in 0.0 W/m2 CLR
05:52 7.8 °F 3.1 °F 1026.0 in NW 22.5 mph 22.5 mph 72 % 0.0 in 0.0 W/m2 CLR
05:57 7.8 °F 3.1 °F 1026.0 in NNW 19.3 mph 19.3 mph 72 % 0.0 in 0.0 W/m2 CLR
06:02 7.8 °F 3.1 °F 1026.0 in NW 20.4 mph 20.4 mph 72 % 0.0 in 0.0 W/m2 CLR
06:07 7.8 °F 2.8 °F 1025.6 in WNW 20.4 mph 20.4 mph 71 % 0.0 in 0.0 W/m2 CLR
06:12 7.2 °F 2.3 °F 1026.0 in WNW 18.5 mph 18.5 mph 71 % 0.0 in 0.0 W/m2 CLR
06:18 7.2 °F 2.5 °F 1026.0 in West 19.3 mph 19.3 mph 72 % 0.0 in 0.0 W/m2 CLR
06:23 7.2 °F 2.5 °F 1026.0 in WNW 18.5 mph 18.5 mph 72 % 0.0 in 0.0 W/m2 CLR
06:28 7.2 °F 2.5 °F 1026.0 in WNW 18.5 mph 18.5 mph 72 % 0.0 in 0.0 W/m2 CLR
06:33 7.2 °F 2.3 °F 1026.0 in WNW 14.8 mph 14.8 mph 71 % 0.0 in 0.0 W/m2 CLR
06:38 7.2 °F 2.3 °F 1026.0 in West 1.9 mph 2.3 mph 71 % 0.0 in 0.0 W/m2 CLR
06:43 7.2 °F 2.5 °F 1026.0 in West 14.8 mph 14.8 mph 72 % 0.0 in 0.0 W/m2 CLR
06:48 7.2 °F 2.5 °F 1026.0 in NW 18.5 mph 18.5 mph 72 % 0.0 in 0.0 W/m2 CLR
06:53 6.7 °F 2.0 °F 1026.0 in WNW 20.4 mph 20.4 mph 72 % 0.0 in 0.0 W/m2 CLR
06:58 6.7 °F 1.6 °F 1026.3 in WNW 18.5 mph 18.5 mph 70 % 0.0 in 0.0 W/m2 CLR
07:03 6.7 °F 1.6 °F 1026.0 in NW 20.9 mph 20.9 mph 70 % 0.0 in 0.0 W/m2 CLR
07:08 6.7 °F 1.6 °F 1026.0 in NW 18.5 mph 18.5 mph 70 % 0.0 in 0.0 W/m2 CLR
07:13 6.7 °F 1.4 °F 1026.0 in NW 18.5 mph 18.5 mph 69 % 0.0 in 0.0 W/m2 CLR
07:18 6.7 °F 1.4 °F 1026.0 in WNW 11.3 mph 11.3 mph 69 % 0.0 in 0.0 W/m2 CLR
07:23 6.7 °F 1.4 °F 1026.0 in WNW 11.1 mph 11.1 mph 69 % 0.0 in 0.0 W/m2 CLR
07:28 6.7 °F 1.6 °F 1026.0 in West 11.1 mph 11.1 mph 70 % 0.0 in 0.0 W/m2 CLR
07:33 6.7 °F 1.8 °F 1026.0 in West 9.7 mph 9.7 mph 71 % 0.0 in 0.0 W/m2 CLR
07:38 6.7 °F 2.0 °F 1026.0 in WNW 11.3 mph 11.3 mph 72 % 0.0 in 0.0 W/m2 CLR
07:43 6.7 °F 2.2 °F 1026.0 in WNW 11.1 mph 11.1 mph 73 % 0.0 in 0.0 W/m2 CLR
07:48 6.1 °F 1.8 °F 1026.3 in WNW 13.0 mph 13.0 mph 74 % 0.0 in 0.0 W/m2 CLR
07:53 6.1 °F 1.8 °F 1026.3 in WNW 12.9 mph 12.9 mph 74 % 0.0 in 0.0 W/m2 CLR
07:58 5.6 °F 1.1 °F 1026.3 in WNW 11.1 mph 11.1 mph 73 % 0.0 in 0.0 W/m2 CLR
08:03 5.0 °F 0.4 °F 1026.3 in WNW 11.1 mph 11.1 mph 72 % 0.0 in 0.0 W/m2 CLR
08:08 4.4 °F -0.3 °F 1026.3 in WNW 11.3 mph 11.3 mph 71 % 0.0 in 0.0 W/m2 CLR
08:13 4.4 °F -0.3 °F 1026.3 in WNW 11.1 mph 11.1 mph 71 % 0.0 in 0.0 W/m2 OVC
08:18 3.9 °F -0.9 °F 1026.6 in Calm     71 % 0.0 in 5.0 W/m2 OVC
08:23 3.3 °F -1.4 °F 1026.3 in Calm     71 % 0.0 in 9.0 W/m2 BKN
08:28 3.3 °F -1.2 °F 1026.3 in Calm     72 % 0.0 in 12.0 W/m2 BKN
08:33 3.3 °F -1.1 °F 1026.3 in Calm     73 % 0.0 in 18.0 W/m2 BKN
08:38 3.3 °F -0.9 °F 1026.6 in Calm     74 % 0.0 in 21.0 W/m2 BKN
08:43 3.3 °F -0.9 °F 1026.6 in WNW 11.3 mph 11.3 mph 74 % 0.0 in 23.0 W/m2 BKN
08:48 3.9 °F -0.7 °F 1026.6 in WNW 3.7 mph 3.7 mph 72 % 0.0 in 25.0 W/m2 BKN
08:53 3.3 °F -1.4 °F 1026.6 in NW 14.8 mph 14.8 mph 71 % 0.0 in 26.0 W/m2 BKN
08:58 3.3 °F -1.8 °F 1026.3 in NW 14.8 mph 14.8 mph 69 % 0.0 in 33.0 W/m2 BKN
09:03 3.3 °F -1.8 °F 1026.6 in NW 14.8 mph 14.8 mph 69 % 0.0 in 42.0 W/m2 BKN
09:08 3.9 °F -1.3 °F 1026.3 in NW 16.7 mph 16.7 mph 69 % 0.0 in 51.0 W/m2 SCT
09:13 4.4 °F -0.9 °F 1026.3 in NW 20.4 mph 20.4 mph 68 % 0.0 in 79.0 W/m2 FEW
09:18 5.6 °F -0.1 °F 1026.3 in NW 20.9 mph 20.9 mph 67 % 0.0 in 70.0 W/m2 FEW
09:23 6.7 °F 0.9 °F 1026.3 in NW 24.1 mph 24.1 mph 67 % 0.0 in 67.0 W/m2 FEW
09:28 7.2 °F 1.3 °F 1026.3 in NW 18.5 mph 18.5 mph 66 % 0.0 in 60.0 W/m2 FEW
09:33 7.8 °F 1.6 °F 1026.3 in NNW 18.5 mph 18.5 mph 65 % 0.0 in 90.0 W/m2 FEW
09:38 7.8 °F 1.6 °F 1026.0 in NW 18.5 mph 18.5 mph 65 % 0.0 in 98.0 W/m2 FEW
09:43 8.3 °F 2.1 °F 1026.0 in NW 16.7 mph 16.7 mph 65 % 0.0 in 141.0 W/m2 CLR
09:48 8.3 °F 1.9 °F 1026.0 in NW 18.5 mph 18.5 mph 64 % 0.0 in 167.0 W/m2 CLR
09:53 8.9 °F 2.4 °F 1026.0 in NNW 20.4 mph 20.4 mph 64 % 0.0 in 207.0 W/m2 CLR
09:58 9.4 °F 2.9 °F 1026.3 in NW 18.5 mph 18.5 mph 64 % 0.0 in 197.0 W/m2 CLR
10:03 9.4 °F 2.7 °F 1026.3 in NNW 29.6 mph 29.6 mph 63 % 0.0 in 283.0 W/m2 CLR
10:08 10.0 °F 3.1 °F 1026.3 in NNW 24.1 mph 24.1 mph 62 % 0.0 in 260.0 W/m2 CLR
10:13 10.0 °F 2.8 °F 1026.3 in NNW 24.1 mph 24.1 mph 61 % 0.0 in 253.0 W/m2 CLR
10:18 10.6 °F 3.1 °F 1026.0 in NW 27.8 mph 27.8 mph 60 % 0.0 in 239.0 W/m2 CLR
10:23 10.6 °F 3.1 °F 1026.0 in NW 24.1 mph 24.1 mph 60 % 0.0 in 315.0 W/m2 CLR
10:28 11.1 °F 3.6 °F 1026.0 in NNW 24.1 mph 24.1 mph 60 % 0.0 in 322.0 W/m2 CLR
10:33 11.1 °F 3.4 °F 1026.0 in NNW 31.5 mph 31.5 mph 59 % 0.0 in 339.0 W/m2 CLR
10:38 11.1 °F 3.2 °F 1026.0 in NNW 24.1 mph 24.1 mph 58 % 0.0 in 299.0 W/m2 CLR
10:43 11.7 °F 3.4 °F 1026.0 in NNW 24.1 mph 24.1 mph 57 % 0.0 in 288.0 W/m2 CLR
10:48 11.7 °F 3.2 °F 1026.0 in NW 27.8 mph 27.8 mph 56 % 0.0 in 295.0 W/m2 CLR
10:53 11.7 °F 3.4 °F 1026.3 in NNW 31.5 mph 31.5 mph 57 % 0.0 in 338.0 W/m2 CLR
10:58 12.2 °F 4.2 °F 1026.0 in NW 25.7 mph 25.7 mph 58 % 0.0 in 404.0 W/m2 CLR
11:03 12.2 °F 3.7 °F 1026.0 in NW 24.1 mph 24.1 mph 56 % 0.0 in 334.0 W/m2 CLR
11:08 12.2 °F 3.7 °F 1026.0 in NNW 24.1 mph 24.1 mph 56 % 0.0 in 345.0 W/m2 CLR
11:13 12.8 °F 4.2 °F 1026.0 in NW 27.8 mph 27.8 mph 56 % 0.0 in 387.0 W/m2 CLR
11:18 12.2 °F 3.4 °F 1025.6 in NNW 29.6 mph 29.6 mph 55 % 0.0 in 297.0 W/m2 CLR
11:23 12.2 °F 3.4 °F 1025.6 in NW 22.5 mph 22.5 mph 55 % 0.0 in 390.0 W/m2 CLR
11:28 12.8 °F 4.2 °F 1025.6 in NNW 24.1 mph 24.1 mph 56 % 0.0 in 383.0 W/m2 CLR
11:33 12.8 °F 3.7 °F 1025.6 in NW 29.6 mph 29.6 mph 54 % 0.0 in 446.0 W/m2 CLR
11:38 13.3 °F 4.2 °F 1025.6 in NNW 25.9 mph 25.9 mph 54 % 0.0 in 403.0 W/m2 CLR
11:43 13.3 °F 4.5 °F 1025.6 in NNW 14.8 mph 14.8 mph 55 % 0.0 in 376.0 W/m2 CLR
11:48 13.3 °F 4.2 °F 1025.6 in North 18.5 mph 18.5 mph 54 % 0.0 in 297.0 W/m2 CLR
11:54 12.8 °F 3.7 °F 1025.6 in North 25.9 mph 25.9 mph 54 % 0.0 in 362.0 W/m2 CLR
11:59 13.3 °F 4.2 °F 1025.6 in NNW 18.5 mph 18.5 mph 54 % 0.0 in 364.0 W/m2 CLR
12:04 13.3 °F 4.5 °F 1025.6 in North 20.4 mph 20.4 mph 55 % 0.0 in 388.0 W/m2 CLR
12:09 13.3 °F 4.5 °F 1025.3 in NNW 22.2 mph 22.2 mph 55 % 0.0 in 408.0 W/m2 CLR
12:14 13.3 °F 4.5 °F 1025.3 in NNW 18.5 mph 18.5 mph 55 % 0.0 in 436.0 W/m2 CLR
12:19 12.8 °F 3.9 °F 1025.3 in North 18.5 mph 18.5 mph 55 % 0.0 in 473.0 W/m2 CLR
12:24 13.3 °F 4.5 °F 1025.3 in NNE 16.7 mph 16.7 mph 55 % 0.0 in 471.0 W/m2 CLR
12:29 13.3 °F 4.5 °F 1024.9 in NNE 16.7 mph 16.7 mph 55 % 0.0 in 396.0 W/m2 CLR
12:34 13.9 °F 5.0 °F 1024.9 in NNE 19.3 mph 19.3 mph 55 % 0.0 in 401.0 W/m2 CLR
12:39 13.9 °F 4.7 °F 1024.9 in North 19.3 mph 19.3 mph 54 % 0.0 in 443.0 W/m2 CLR
12:44 13.9 °F 4.4 °F 1024.6 in North 25.9 mph 25.9 mph 53 % 0.0 in 429.0 W/m2 CLR
12:49 13.9 °F 4.2 °F 1024.6 in North 27.8 mph 27.8 mph 52 % 0.0 in 459.0 W/m2 CLR
12:54 13.9 °F 4.2 °F 1024.6 in North 27.8 mph 27.8 mph 52 % 0.0 in 381.0 W/m2 CLR
12:59 14.4 °F 4.4 °F 1024.6 in NNE 25.9 mph 25.9 mph 51 % 0.0 in 452.0 W/m2 CLR
13:04 14.4 °F 4.2 °F 1024.3 in North 20.4 mph 20.4 mph 50 % 0.0 in 378.0 W/m2 CLR
13:09 14.4 °F 4.2 °F 1024.3 in NNE 20.9 mph 20.9 mph 50 % 0.0 in 418.0 W/m2 CLR
13:14 15.0 °F 4.1 °F 1024.3 in NNE 20.4 mph 20.4 mph 48 % 0.0 in 469.0 W/m2 CLR
13:19 15.0 °F 4.1 °F 1024.3 in North 24.1 mph 24.1 mph 48 % 0.0 in 462.0 W/m2 CLR
13:24 15.0 °F 4.1 °F 1023.9 in NNW 27.8 mph 27.8 mph 48 % 0.0 in 468.0 W/m2 CLR
13:29 15.0 °F 3.8 °F 1024.3 in North 31.5 mph 31.5 mph 47 % 0.0 in 475.0 W/m2 CLR
13:34 15.6 °F 4.6 °F 1023.9 in NNW 22.5 mph 22.5 mph 48 % 0.0 in 471.0 W/m2 CLR
13:39 15.6 °F 4.3 °F 1023.9 in NNW 31.5 mph 31.5 mph 47 % 0.0 in 478.0 W/m2 CLR
13:44 15.6 °F 4.3 °F 1023.6 in North 25.9 mph 25.9 mph 47 % 0.0 in 471.0 W/m2 CLR
13:49 16.1 °F 4.5 °F 1023.6 in North 29.6 mph 29.6 mph 46 % 0.0 in 468.0 W/m2 CLR
13:54 15.6 °F 3.9 °F 1023.6 in NNE 24.1 mph 24.1 mph 46 % 0.0 in 466.0 W/m2 CLR
13:59 16.1 °F 4.5 °F 1023.2 in NNW 20.4 mph 20.4 mph 46 % 0.0 in 461.0 W/m2 CLR
14:04 16.1 °F 4.2 °F 1022.9 in North 22.2 mph 22.2 mph 45 % 0.0 in 457.0 W/m2 CLR
14:09 16.1 °F 4.2 °F 1022.9 in NNW 20.4 mph 20.4 mph 45 % 0.0 in 455.0 W/m2 CLR
14:14 16.7 °F 4.3 °F 1022.9 in NNW 31.5 mph 31.5 mph 44 % 0.0 in 450.0 W/m2 CLR
14:19 16.7 °F 4.0 °F 1022.9 in NW 31.5 mph 31.5 mph 43 % 0.0 in 445.0 W/m2 CLR
14:24 16.7 °F 3.7 °F 1022.9 in NW 40.7 mph 40.7 mph 42 % 0.0 in 443.0 W/m2 CLR
14:29 17.2 °F 4.2 °F 1022.9 in NNW 44.4 mph 44.4 mph 42 % 0.0 in 439.0 W/m2 CLR
14:34 16.7 °F 3.3 °F 1022.6 in NNE 37.0 mph 37.0 mph 41 % 0.0 in 432.0 W/m2 CLR
14:39 16.7 °F 4.0 °F 1022.6 in NNW 33.3 mph 33.3 mph 43 % 0.0 in 425.0 W/m2 CLR
14:44 16.7 °F 3.3 °F 1022.6 in North 33.3 mph 33.3 mph 41 % 0.0 in 420.0 W/m2 CLR
14:49 16.7 °F 3.7 °F 1022.6 in North 38.9 mph 38.9 mph 42 % 0.0 in 413.0 W/m2 CLR
14:54 16.7 °F 3.7 °F 1022.6 in North 24.1 mph 24.1 mph 42 % 0.0 in 403.0 W/m2 CLR
14:59 16.7 °F 3.3 °F 1022.2 in North 25.9 mph 25.9 mph 41 % 0.0 in 390.0 W/m2 CLR
15:04 17.2 °F 3.1 °F 1022.6 in North 37.0 mph 37.0 mph 39 % 0.0 in 385.0 W/m2 CLR
15:09 17.2 °F 2.8 °F 1022.2 in North 37.0 mph 37.0 mph 38 % 0.0 in 378.0 W/m2 CLR
15:14 17.2 °F 2.4 °F 1022.6 in NNE 35.2 mph 35.2 mph 37 % 0.0 in 369.0 W/m2 CLR
15:19 17.2 °F 2.4 °F 1022.6 in NW 50.0 mph 50.0 mph 37 % 0.0 in 359.0 W/m2 CLR
15:24 17.2 °F 2.0 °F 1022.2 in NNW 44.4 mph 44.4 mph 36 % 0.0 in 348.0 W/m2 CLR
15:29 17.2 °F 2.0 °F 1022.2 in NNW 48.1 mph 48.1 mph 36 % 0.0 in 339.0 W/m2 CLR
15:34 17.2 °F 1.6 °F 1022.2 in North 42.6 mph 42.6 mph 35 % 0.0 in 330.0 W/m2 CLR
15:39 17.2 °F 1.6 °F 1022.2 in NNW 37.0 mph 37.0 mph 35 % 0.0 in 323.0 W/m2 CLR
15:44 17.2 °F 1.6 °F 1022.2 in NNW 35.2 mph 35.2 mph 35 % 0.0 in 308.0 W/m2 CLR
15:49 17.2 °F 1.6 °F 1022.2 in NW 37.0 mph 37.0 mph 35 % 0.0 in 306.0 W/m2 CLR
15:54 17.2 °F 2.4 °F 1022.2 in NNE 24.1 mph 24.1 mph 37 % 0.0 in 271.0 W/m2 CLR
15:59 17.2 °F 2.4 °F 1022.2 in North 31.5 mph 31.5 mph 37 % 0.0 in 380.0 W/m2 CLR
16:04 17.2 °F 2.0 °F 1022.6 in NNW 27.8 mph 27.8 mph 36 % 0.0 in 311.0 W/m2 CLR
16:09 17.2 °F 2.8 °F 1022.6 in North 32.2 mph 32.2 mph 38 % 0.0 in 130.0 W/m2 CLR
16:14 16.7 °F 2.6 °F 1022.6 in NNW 31.5 mph 31.5 mph 39 % 0.0 in 121.0 W/m2 CLR
16:19 16.1 °F 2.5 °F 1022.6 in NNW 37.0 mph 37.0 mph 40 % 0.0 in 70.0 W/m2 CLR
16:24 15.6 °F 2.7 °F 1022.6 in NNW 25.9 mph 25.9 mph 42 % 0.0 in 162.0 W/m2 FEW
16:29 15.6 °F 2.3 °F 1022.6 in NNW 37.0 mph 37.0 mph 41 % 0.0 in 47.0 W/m2 FEW
16:34 15.6 °F 3.0 °F 1022.6 in NNW 31.5 mph 31.5 mph 43 % 0.0 in 135.0 W/m2 FEW
16:39 15.0 °F 2.5 °F 1022.2 in NNW 31.5 mph 31.5 mph 43 % 0.0 in 162.0 W/m2 FEW
16:44 15.0 °F 2.2 °F 1022.2 in NNW 32.2 mph 32.2 mph 42 % 0.0 in 144.0 W/m2 CLR
16:49 15.6 °F 2.7 °F 1022.2 in NNW 31.5 mph 31.5 mph 42 % 0.0 in 132.0 W/m2 CLR
16:54 15.6 °F 3.0 °F 1022.2 in North 27.4 mph 27.4 mph 43 % 0.0 in 120.0 W/m2 CLR
16:59 15.0 °F 2.2 °F 1022.2 in NNW 35.2 mph 35.2 mph 42 % 0.0 in 51.0 W/m2 CLR
17:04 15.0 °F 2.5 °F 1022.6 in NNW 31.5 mph 31.5 mph 43 % 0.0 in 93.0 W/m2 FEW
17:10 15.0 °F 2.5 °F 1022.6 in NNW 25.9 mph 25.9 mph 43 % 0.0 in 54.0 W/m2 CLR
17:15 15.0 °F 2.5 °F 1022.6 in NNW 31.5 mph 31.5 mph 43 % 0.0 in 49.0 W/m2 BKN
17:20 14.4 °F 2.3 °F 1022.6 in North 37.0 mph 37.0 mph 44 % 0.0 in 69.0 W/m2 SCT
17:25 14.4 °F 2.7 °F 1022.6 in North 33.3 mph 33.3 mph 45 % 0.0 in 46.0 W/m2 SCT
17:30 14.4 °F 2.7 °F 1022.6 in NNW 31.5 mph 31.5 mph 45 % 0.0 in 35.0 W/m2 BKN
17:35 13.9 °F 2.4 °F 1022.9 in NNW 33.3 mph 33.3 mph 46 % 0.0 in 26.0 W/m2 BKN
17:40 13.9 °F 2.4 °F 1022.9 in NNW 31.5 mph 31.5 mph 46 % 0.0 in 23.0 W/m2 BKN
17:45 13.9 °F 2.8 °F 1022.9 in North 35.4 mph 35.4 mph 47 % 0.0 in 19.0 W/m2 BKN
17:50 13.9 °F 2.8 °F 1022.9 in NNW 29.6 mph 29.6 mph 47 % 0.0 in 12.0 W/m2 BKN
17:55 13.9 °F 2.8 °F 1022.9 in North 33.3 mph 33.3 mph 47 % 0.0 in 9.0 W/m2 BKN
18:00 13.9 °F 3.1 °F 1023.2 in NNW 31.5 mph 31.5 mph 48 % 0.0 in 5.0 W/m2 OVC
18:05 13.3 °F 2.6 °F 1023.2 in North 33.8 mph 33.8 mph 48 % 0.0 in 0.0 W/m2 OVC
18:10 13.3 °F 2.8 °F 1023.2 in NNW 31.5 mph 31.5 mph 49 % 0.0 in 0.0 W/m2 OVC
18:15 13.3 °F 2.8 °F 1023.2 in NNW 22.5 mph 22.5 mph 49 % 0.0 in 0.0 W/m2 CLR
18:20 13.3 °F 3.1 °F 1023.2 in NNW 22.2 mph 22.2 mph 50 % 0.0 in 0.0 W/m2 CLR
18:25 13.3 °F 3.1 °F 1023.2 in NW 24.1 mph 24.1 mph 50 % 0.0 in 0.0 W/m2 CLR
18:30 13.3 °F 3.1 °F 1023.2 in NW 22.2 mph 22.2 mph 50 % 0.0 in 0.0 W/m2 CLR
18:35 13.3 °F 3.1 °F 1023.2 in NW 25.9 mph 25.9 mph 50 % 0.0 in 0.0 W/m2 CLR
18:40 13.3 °F 3.1 °F 1023.2 in NW 22.2 mph 22.2 mph 50 % 0.0 in 0.0 W/m2 CLR
18:45 13.9 °F 3.6 °F 1023.2 in NNW 33.8 mph 33.8 mph 50 % 0.0 in 0.0 W/m2 CLR
18:50 13.9 °F 3.3 °F 1023.2 in NNW 24.1 mph 24.1 mph 49 % 0.0 in 0.0 W/m2 CLR
18:55 13.9 °F 3.3 °F 1023.2 in NW 27.8 mph 27.8 mph 49 % 0.0 in 0.0 W/m2 CLR
19:00 13.9 °F 3.3 °F 1023.2 in NNW 31.5 mph 31.5 mph 49 % 0.0 in 0.0 W/m2 CLR
19:05 13.9 °F 3.6 °F 1023.2 in NW 20.4 mph 20.4 mph 50 % 0.0 in 0.0 W/m2 CLR
19:10 13.3 °F 3.1 °F 1023.2 in NW 29.6 mph 29.6 mph 50 % 0.0 in 0.0 W/m2 CLR
19:15 13.3 °F 3.4 °F 1023.6 in NW 22.2 mph 22.2 mph 51 % 0.0 in 0.0 W/m2 CLR
19:20 13.3 °F 3.4 °F 1023.6 in NW 33.3 mph 33.3 mph 51 % 0.0 in 0.0 W/m2 CLR
19:25 13.3 °F 3.4 °F 1023.6 in NNW 20.4 mph 20.4 mph 51 % 0.0 in 0.0 W/m2 CLR
19:30 13.3 °F 3.7 °F 1023.2 in NNW 24.1 mph 24.1 mph 52 % 0.0 in 0.0 W/m2 CLR
19:35 13.3 °F 3.7 °F 1023.2 in NW 25.9 mph 25.9 mph 52 % 0.0 in 0.0 W/m2 CLR
19:40 13.3 °F 3.7 °F 1023.2 in NW 25.9 mph 25.9 mph 52 % 0.0 in 0.0 W/m2 CLR
19:45 13.3 °F 3.9 °F 1023.2 in NNW 31.5 mph 31.5 mph 53 % 0.0 in 0.0 W/m2 CLR
19:50 13.3 °F 3.9 °F 1023.2 in NW 32.2 mph 32.2 mph 53 % 0.0 in 0.0 W/m2 CLR
19:55 13.3 °F 3.9 °F 1023.2 in NW 31.5 mph 31.5 mph 53 % 0.0 in 0.0 W/m2 CLR
20:00 13.3 °F 3.9 °F 1023.6 in NW 32.2 mph 32.2 mph 53 % 0.0 in 0.0 W/m2 CLR
20:05 13.3 °F 3.9 °F 1023.6 in NW 27.8 mph 27.8 mph 53 % 0.0 in 0.0 W/m2 CLR
20:06 13.3 °F 3.9 °F 1023.6 in NNW 25.9 mph 25.9 mph 53 % 0.0 in 0.0 W/m2 CLR
20:11 13.3 °F 4.2 °F 1023.6 in NNW 35.2 mph 35.2 mph 54 % 0.0 in 0.0 W/m2 CLR
20:16 12.8 °F 3.7 °F 1023.6 in NW 25.9 mph 25.9 mph 54 % 0.0 in 0.0 W/m2 CLR
20:21 12.8 °F 3.7 °F 1023.6 in NNW 22.2 mph 22.2 mph 54 % 0.0 in 0.0 W/m2 CLR
20:26 12.8 °F 3.7 °F 1023.6 in NNW 33.3 mph 33.3 mph 54 % 0.0 in 0.0 W/m2 CLR
20:31 12.8 °F 3.4 °F 1023.6 in NW 42.6 mph 42.6 mph 53 % 0.0 in 0.0 W/m2 CLR
20:36 13.3 °F 3.9 °F 1023.6 in NW 24.1 mph 24.1 mph 53 % 0.0 in 0.0 W/m2 CLR
20:41 13.3 °F 3.9 °F 1023.6 in NW 31.5 mph 31.5 mph 53 % 0.0 in 0.0 W/m2 CLR
20:46 12.8 °F 3.4 °F 1023.6 in NW 25.9 mph 25.9 mph 53 % 0.0 in 0.0 W/m2 CLR
20:51 12.8 °F 3.4 °F 1023.6 in North 37.0 mph 37.0 mph 53 % 0.0 in 0.0 W/m2 CLR
20:56 13.3 °F 3.9 °F 1023.6 in NW 24.1 mph 24.1 mph 53 % 0.0 in 0.0 W/m2 CLR
21:01 13.3 °F 3.9 °F 1023.6 in NNW 33.3 mph 33.3 mph 53 % 0.0 in 0.0 W/m2 CLR
21:06 13.3 °F 3.7 °F 1023.6 in NNW 31.5 mph 31.5 mph 52 % 0.0 in 0.0 W/m2 CLR
21:11 13.3 °F 3.7 °F 1023.6 in NW 31.5 mph 31.5 mph 52 % 0.0 in 0.0 W/m2 CLR
21:16 13.3 °F 3.7 °F 1023.6 in North 29.6 mph 29.6 mph 52 % 0.0 in 0.0 W/m2 CLR
21:21 13.3 °F 3.9 °F 1023.6 in NW 37.0 mph 37.0 mph 53 % 0.0 in 0.0 W/m2 CLR
21:26 13.3 °F 3.9 °F 1023.9 in NW 18.5 mph 18.5 mph 53 % 0.0 in 0.0 W/m2 CLR
21:31 13.3 °F 3.9 °F 1023.9 in NNW 33.3 mph 33.3 mph 53 % 0.0 in 0.0 W/m2 CLR
21:36 13.3 °F 3.9 °F 1023.9 in WNW 31.5 mph 31.5 mph 53 % 0.0 in 0.0 W/m2 CLR
21:41 13.3 °F 3.9 °F 1023.9 in WNW 35.2 mph 35.2 mph 53 % 0.0 in 0.0 W/m2 CLR
21:46 13.3 °F 3.9 °F 1023.9 in NNW 27.8 mph 27.8 mph 53 % 0.0 in 0.0 W/m2 CLR
21:51 13.3 °F 4.2 °F 1023.9 in NW 33.8 mph 33.8 mph 54 % 0.0 in 0.0 W/m2 CLR
21:56 13.3 °F 4.2 °F 1024.3 in NW 33.3 mph 33.3 mph 54 % 0.0 in 0.0 W/m2 CLR
22:01 13.3 °F 4.2 °F 1024.3 in NNW 31.5 mph 31.5 mph 54 % 0.0 in 0.0 W/m2 CLR
22:06 13.3 °F 4.2 °F 1024.3 in NNW 42.6 mph 42.6 mph 54 % 0.0 in 0.0 W/m2 CLR
22:11 13.3 °F 4.5 °F 1024.6 in NW 48.3 mph 48.3 mph 55 % 0.0 in 0.0 W/m2 CLR
22:16 13.9 °F 4.7 °F 1024.3 in NNW 44.4 mph 44.4 mph 54 % 0.0 in 0.0 W/m2 CLR
22:21 13.9 °F 4.7 °F 1024.6 in NNW 35.2 mph 35.2 mph 54 % 0.0 in 0.0 W/m2 CLR
22:26 13.9 °F 5.0 °F 1024.6 in WNW 33.8 mph 33.8 mph 55 % 0.0 in 0.0 W/m2 CLR
22:31 13.9 °F 5.0 °F 1024.6 in NNW 38.9 mph 38.9 mph 55 % 0.0 in 0.0 W/m2 CLR
22:36 13.9 °F 5.0 °F 1024.9 in NNW 35.2 mph 35.2 mph 55 % 0.0 in 0.0 W/m2 CLR
22:41 13.9 °F 5.0 °F 1024.6 in NNW 31.5 mph 31.5 mph 55 % 0.0 in 0.0 W/m2 CLR
22:46 13.9 °F 5.0 °F 1024.6 in NNW 31.5 mph 31.5 mph 55 % 0.0 in 0.0 W/m2 CLR
22:51 13.9 °F 5.0 °F 1024.6 in NW 33.3 mph 33.3 mph 55 % 0.0 in 0.0 W/m2 CLR
22:56 13.9 °F 5.0 °F 1024.9 in NW 31.5 mph 31.5 mph 55 % 0.0 in 0.0 W/m2 CLR
23:01 13.9 °F 5.2 °F 1024.9 in NNW 33.3 mph 33.3 mph 56 % 0.0 in 0.0 W/m2 CLR
23:06 13.9 °F 5.2 °F 1024.9 in NW 31.5 mph 31.5 mph 56 % 0.0 in 0.0 W/m2 CLR
23:11 13.9 °F 5.2 °F 1024.9 in NNW 31.5 mph 31.5 mph 56 % 0.0 in 0.0 W/m2 CLR
23:16 13.9 °F 5.5 °F 1024.9 in WNW 29.6 mph 29.6 mph 57 % 0.0 in 0.0 W/m2 CLR
23:21 13.9 °F 5.5 °F 1024.9 in NNW 22.2 mph 22.2 mph 57 % 0.0 in 0.0 W/m2 CLR
23:26 13.9 °F 5.5 °F 1024.9 in NNW 29.0 mph 29.0 mph 57 % 0.0 in 0.0 W/m2 CLR
23:31 13.9 °F 5.5 °F 1024.9 in NNW 24.1 mph 24.1 mph 57 % 0.0 in 0.0 W/m2 CLR
23:36 13.9 °F 5.5 °F 1024.9 in NNW 18.5 mph 18.5 mph 57 % 0.0 in 0.0 W/m2 CLR
23:41 13.9 °F 5.8 °F 1024.9 in NW 20.4 mph 20.4 mph 58 % 0.0 in 0.0 W/m2 CLR
23:46 13.9 °F 5.8 °F 1024.9 in NNW 35.2 mph 35.2 mph 58 % 0.0 in 0.0 W/m2 CLR
23:51 13.9 °F 5.8 °F 1024.9 in NNW 27.4 mph 27.4 mph 58 % 0.0 in 0.0 W/m2 CLR
23:56 13.9 °F 5.8 °F 1024.9 in NW 17.7 mph 17.7 mph 58 % 0.0 in 0.0 W/m2 CLR
Lo Temps de Massalio
Compliments of Weather Underground - 1.25 mb